sensor_id;sensor_type;location;lat;lon;timestamp;temperature;humidity
45807;DHT22;31507;51.494;7.518;2024-02-26T00:02:25;4.20;99.90
45807;DHT22;31507;51.494;7.518;2024-02-26T00:04:50;4.20;99.90
45807;DHT22;31507;51.494;7.518;2024-02-26T00:07:16;4.20;99.90
45807;DHT22;31507;51.494;7.518;2024-02-26T00:09:42;4.20;99.90
45807;DHT22;31507;51.494;7.518;2024-02-26T00:12:07;4.20;99.90
45807;DHT22;31507;51.494;7.518;2024-02-26T00:14:33;4.10;99.90
45807;DHT22;31507;51.494;7.518;2024-02-26T00:16:59;4.10;99.90
45807;DHT22;31507;51.494;7.518;2024-02-26T00:19:24;4.10;99.90
45807;DHT22;31507;51.494;7.518;2024-02-26T00:21:50;4.10;99.90
45807;DHT22;31507;51.494;7.518;2024-02-26T00:24:16;4.10;99.90
45807;DHT22;31507;51.494;7.518;2024-02-26T00:26:41;4.10;99.90
45807;DHT22;31507;51.494;7.518;2024-02-26T00:29:07;4.10;99.90
45807;DHT22;31507;51.494;7.518;2024-02-26T00:31:32;4.10;99.90
45807;DHT22;31507;51.494;7.518;2024-02-26T00:33:58;4.10;99.90
45807;DHT22;31507;51.494;7.518;2024-02-26T00:36:23;4.20;99.90
45807;DHT22;31507;51.494;7.518;2024-02-26T00:38:49;4.20;99.90
45807;DHT22;31507;51.494;7.518;2024-02-26T00:41:17;4.10;99.90
45807;DHT22;31507;51.494;7.518;2024-02-26T00:43:43;4.10;99.90
45807;DHT22;31507;51.494;7.518;2024-02-26T00:46:08;4.10;99.90
45807;DHT22;31507;51.494;7.518;2024-02-26T00:48:34;4.10;99.90
45807;DHT22;31507;51.494;7.518;2024-02-26T00:51:00;4.10;99.90
45807;DHT22;31507;51.494;7.518;2024-02-26T00:53:25;4.10;99.90
45807;DHT22;31507;51.494;7.518;2024-02-26T00:55:51;4.10;99.90
45807;DHT22;31507;51.494;7.518;2024-02-26T00:58:17;4.10;99.90
45807;DHT22;31507;51.494;7.518;2024-02-26T01:00:44;4.10;99.90
45807;DHT22;31507;51.494;7.518;2024-02-26T01:03:09;4.10;99.90
45807;DHT22;31507;51.494;7.518;2024-02-26T01:05:36;4.10;99.90
45807;DHT22;31507;51.494;7.518;2024-02-26T01:08:03;4.10;99.90
45807;DHT22;31507;51.494;7.518;2024-02-26T01:10:29;4.10;99.90
45807;DHT22;31507;51.494;7.518;2024-02-26T01:12:54;4.10;99.90
45807;DHT22;31507;51.494;7.518;2024-02-26T01:15:20;4.10;99.90
45807;DHT22;31507;51.494;7.518;2024-02-26T01:17:49;4.20;99.90
45807;DHT22;31507;51.494;7.518;2024-02-26T01:20:15;4.20;99.90
45807;DHT22;31507;51.494;7.518;2024-02-26T01:22:42;4.20;99.90
45807;DHT22;31507;51.494;7.518;2024-02-26T01:25:09;4.20;99.90
45807;DHT22;31507;51.494;7.518;2024-02-26T01:27:35;4.20;99.90
45807;DHT22;31507;51.494;7.518;2024-02-26T01:30:02;4.20;99.90
45807;DHT22;31507;51.494;7.518;2024-02-26T01:32:29;4.20;99.90
45807;DHT22;31507;51.494;7.518;2024-02-26T01:34:54;4.20;99.90
45807;DHT22;31507;51.494;7.518;2024-02-26T01:37:20;4.30;99.90
45807;DHT22;31507;51.494;7.518;2024-02-26T01:39:46;4.30;99.90
45807;DHT22;31507;51.494;7.518;2024-02-26T01:42:11;4.40;99.90
45807;DHT22;31507;51.494;7.518;2024-02-26T01:44:37;4.40;99.90
45807;DHT22;31507;51.494;7.518;2024-02-26T01:47:03;4.40;99.90
45807;DHT22;31507;51.494;7.518;2024-02-26T01:49:29;4.40;99.90
45807;DHT22;31507;51.494;7.518;2024-02-26T01:51:55;4.40;99.90
45807;DHT22;31507;51.494;7.518;2024-02-26T01:54:21;4.40;99.90
45807;DHT22;31507;51.494;7.518;2024-02-26T01:56:47;4.40;99.90
45807;DHT22;31507;51.494;7.518;2024-02-26T01:59:12;4.40;99.90
45807;DHT22;31507;51.494;7.518;2024-02-26T02:01:39;4.40;99.90
45807;DHT22;31507;51.494;7.518;2024-02-26T02:04:06;4.40;99.90
45807;DHT22;31507;51.494;7.518;2024-02-26T02:06:32;4.40;99.90
45807;DHT22;31507;51.494;7.518;2024-02-26T02:08:58;4.40;99.90
45807;DHT22;31507;51.494;7.518;2024-02-26T02:11:25;4.40;99.90
45807;DHT22;31507;51.494;7.518;2024-02-26T02:13:51;4.40;99.90
45807;DHT22;31507;51.494;7.518;2024-02-26T02:16:17;4.30;99.90
45807;DHT22;31507;51.494;7.518;2024-02-26T02:18:42;4.30;99.90
45807;DHT22;31507;51.494;7.518;2024-02-26T02:21:08;4.30;99.90
45807;DHT22;31507;51.494;7.518;2024-02-26T02:23:34;4.30;99.90
45807;DHT22;31507;51.494;7.518;2024-02-26T02:26:00;4.30;99.90
45807;DHT22;31507;51.494;7.518;2024-02-26T02:28:26;4.30;99.90
45807;DHT22;31507;51.494;7.518;2024-02-26T02:30:52;4.30;99.90
45807;DHT22;31507;51.494;7.518;2024-02-26T02:33:18;4.30;99.90
45807;DHT22;31507;51.494;7.518;2024-02-26T02:35:44;4.20;99.90
45807;DHT22;31507;51.494;7.518;2024-02-26T02:38:09;4.20;99.90
45807;DHT22;31507;51.494;7.518;2024-02-26T02:40:35;4.30;99.90
45807;DHT22;31507;51.494;7.518;2024-02-26T02:43:02;4.20;99.90
45807;DHT22;31507;51.494;7.518;2024-02-26T02:45:27;4.20;99.90
45807;DHT22;31507;51.494;7.518;2024-02-26T02:47:53;4.20;99.90
45807;DHT22;31507;51.494;7.518;2024-02-26T02:50:19;4.20;99.90
45807;DHT22;31507;51.494;7.518;2024-02-26T02:52:44;4.20;99.90
45807;DHT22;31507;51.494;7.518;2024-02-26T02:55:13;4.20;99.90
45807;DHT22;31507;51.494;7.518;2024-02-26T02:57:39;4.20;99.90
45807;DHT22;31507;51.494;7.518;2024-02-26T03:00:09;4.20;99.90
45807;DHT22;31507;51.494;7.518;2024-02-26T03:02:35;4.20;99.90
45807;DHT22;31507;51.494;7.518;2024-02-26T03:05:01;4.20;99.90
45807;DHT22;31507;51.494;7.518;2024-02-26T03:07:27;4.20;99.90
45807;DHT22;31507;51.494;7.518;2024-02-26T03:09:53;4.10;99.90
45807;DHT22;31507;51.494;7.518;2024-02-26T03:12:18;4.10;99.90
45807;DHT22;31507;51.494;7.518;2024-02-26T03:14:44;4.10;99.90
45807;DHT22;31507;51.494;7.518;2024-02-26T03:17:10;4.10;99.90
45807;DHT22;31507;51.494;7.518;2024-02-26T03:19:36;4.10;99.90
45807;DHT22;31507;51.494;7.518;2024-02-26T03:22:01;4.10;99.90
45807;DHT22;31507;51.494;7.518;2024-02-26T03:24:27;4.10;99.90
45807;DHT22;31507;51.494;7.518;2024-02-26T03:26:53;4.10;99.90
45807;DHT22;31507;51.494;7.518;2024-02-26T03:29:19;4.10;99.90
45807;DHT22;31507;51.494;7.518;2024-02-26T03:31:44;4.10;99.90
45807;DHT22;31507;51.494;7.518;2024-02-26T03:34:10;4.10;99.90
45807;DHT22;31507;51.494;7.518;2024-02-26T03:36:37;4.10;99.90
45807;DHT22;31507;51.494;7.518;2024-02-26T03:39:02;4.00;99.90
45807;DHT22;31507;51.494;7.518;2024-02-26T03:41:33;4.00;99.90
45807;DHT22;31507;51.494;7.518;2024-02-26T03:44:00;4.00;99.90
45807;DHT22;31507;51.494;7.518;2024-02-26T03:46:26;4.00;99.90
45807;DHT22;31507;51.494;7.518;2024-02-26T03:48:51;3.90;99.90
45807;DHT22;31507;51.494;7.518;2024-02-26T03:51:17;3.90;99.90
45807;DHT22;31507;51.494;7.518;2024-02-26T03:53:43;3.80;99.90
45807;DHT22;31507;51.494;7.518;2024-02-26T03:56:10;3.70;99.90
45807;DHT22;31507;51.494;7.518;2024-02-26T03:58:36;3.70;99.90
45807;DHT22;31507;51.494;7.518;2024-02-26T04:01:02;3.60;99.90
45807;DHT22;31507;51.494;7.518;2024-02-26T04:03:27;3.60;99.90
45807;DHT22;31507;51.494;7.518;2024-02-26T04:05:53;3.50;99.90
45807;DHT22;31507;51.494;7.518;2024-02-26T04:08:18;3.50;99.90
45807;DHT22;31507;51.494;7.518;2024-02-26T04:10:44;3.40;99.90
45807;DHT22;31507;51.494;7.518;2024-02-26T04:13:09;3.40;99.90
45807;DHT22;31507;51.494;7.518;2024-02-26T04:15:35;3.30;99.90
45807;DHT22;31507;51.494;7.518;2024-02-26T04:18:00;3.30;99.90
45807;DHT22;31507;51.494;7.518;2024-02-26T04:20:26;3.30;99.90
45807;DHT22;31507;51.494;7.518;2024-02-26T04:22:52;3.30;99.90
45807;DHT22;31507;51.494;7.518;2024-02-26T04:25:18;3.30;99.90
45807;DHT22;31507;51.494;7.518;2024-02-26T04:27:43;3.30;99.90
45807;DHT22;31507;51.494;7.518;2024-02-26T04:30:09;3.30;99.90
45807;DHT22;31507;51.494;7.518;2024-02-26T04:32:34;3.30;99.90
45807;DHT22;31507;51.494;7.518;2024-02-26T04:35:01;3.30;99.90
45807;DHT22;31507;51.494;7.518;2024-02-26T04:37:26;3.30;99.90
45807;DHT22;31507;51.494;7.518;2024-02-26T04:39:59;3.30;99.90
45807;DHT22;31507;51.494;7.518;2024-02-26T04:42:25;3.30;99.90
45807;DHT22;31507;51.494;7.518;2024-02-26T04:44:50;3.30;99.90
45807;DHT22;31507;51.494;7.518;2024-02-26T04:47:16;3.30;99.90
45807;DHT22;31507;51.494;7.518;2024-02-26T04:49:41;3.30;99.90
45807;DHT22;31507;51.494;7.518;2024-02-26T04:52:07;3.30;99.90
45807;DHT22;31507;51.494;7.518;2024-02-26T04:54:33;3.30;99.90
45807;DHT22;31507;51.494;7.518;2024-02-26T04:56:58;3.30;99.90
45807;DHT22;31507;51.494;7.518;2024-02-26T04:59:24;3.30;99.90
45807;DHT22;31507;51.494;7.518;2024-02-26T05:01:49;3.40;99.90
45807;DHT22;31507;51.494;7.518;2024-02-26T05:04:16;3.30;99.90
45807;DHT22;31507;51.494;7.518;2024-02-26T05:06:42;3.30;99.90
45807;DHT22;31507;51.494;7.518;2024-02-26T05:09:07;3.40;99.90
45807;DHT22;31507;51.494;7.518;2024-02-26T05:11:33;3.40;99.90
45807;DHT22;31507;51.494;7.518;2024-02-26T05:13:59;3.40;99.90
45807;DHT22;31507;51.494;7.518;2024-02-26T05:16:26;3.40;99.90
45807;DHT22;31507;51.494;7.518;2024-02-26T05:18:52;3.40;99.90
45807;DHT22;31507;51.494;7.518;2024-02-26T05:21:18;3.40;99.90
45807;DHT22;31507;51.494;7.518;2024-02-26T05:23:43;3.40;99.90
45807;DHT22;31507;51.494;7.518;2024-02-26T05:26:09;3.50;99.90
45807;DHT22;31507;51.494;7.518;2024-02-26T05:28:36;3.50;99.90
45807;DHT22;31507;51.494;7.518;2024-02-26T05:31:12;3.50;99.90
45807;DHT22;31507;51.494;7.518;2024-02-26T05:33:37;3.50;99.90
45807;DHT22;31507;51.494;7.518;2024-02-26T05:36:03;3.50;99.90
45807;DHT22;31507;51.494;7.518;2024-02-26T05:38:30;3.50;99.90
45807;DHT22;31507;51.494;7.518;2024-02-26T05:40:57;3.50;99.90
45807;DHT22;31507;51.494;7.518;2024-02-26T05:43:23;3.50;99.90
45807;DHT22;31507;51.494;7.518;2024-02-26T05:45:49;3.50;99.90
45807;DHT22;31507;51.494;7.518;2024-02-26T05:48:14;3.50;99.90
45807;DHT22;31507;51.494;7.518;2024-02-26T05:50:40;3.50;99.90
45807;DHT22;31507;51.494;7.518;2024-02-26T05:53:05;3.40;99.90
45807;DHT22;31507;51.494;7.518;2024-02-26T05:55:31;3.40;99.90
45807;DHT22;31507;51.494;7.518;2024-02-26T05:57:56;3.40;99.90
45807;DHT22;31507;51.494;7.518;2024-02-26T06:00:22;3.40;99.90
45807;DHT22;31507;51.494;7.518;2024-02-26T06:02:47;3.40;99.90
45807;DHT22;31507;51.494;7.518;2024-02-26T06:05:12;3.40;99.90
45807;DHT22;31507;51.494;7.518;2024-02-26T06:07:38;3.40;99.90
45807;DHT22;31507;51.494;7.518;2024-02-26T06:10:04;3.40;99.90
45807;DHT22;31507;51.494;7.518;2024-02-26T06:12:30;3.40;99.90
45807;DHT22;31507;51.494;7.518;2024-02-26T06:14:56;3.50;99.90
45807;DHT22;31507;51.494;7.518;2024-02-26T06:17:21;3.50;99.90
45807;DHT22;31507;51.494;7.518;2024-02-26T06:19:47;3.50;99.90
45807;DHT22;31507;51.494;7.518;2024-02-26T06:22:12;3.50;99.90
45807;DHT22;31507;51.494;7.518;2024-02-26T06:24:38;3.50;99.90
45807;DHT22;31507;51.494;7.518;2024-02-26T06:27:04;3.50;99.90
45807;DHT22;31507;51.494;7.518;2024-02-26T06:29:29;3.50;99.90
45807;DHT22;31507;51.494;7.518;2024-02-26T06:31:55;3.50;99.90
45807;DHT22;31507;51.494;7.518;2024-02-26T06:34:20;3.50;99.90
45807;DHT22;31507;51.494;7.518;2024-02-26T06:36:46;3.50;99.90
45807;DHT22;31507;51.494;7.518;2024-02-26T06:39:12;3.50;99.90
45807;DHT22;31507;51.494;7.518;2024-02-26T06:41:38;3.50;99.90
45807;DHT22;31507;51.494;7.518;2024-02-26T06:44:04;3.50;99.90
45807;DHT22;31507;51.494;7.518;2024-02-26T06:46:30;3.50;99.90
45807;DHT22;31507;51.494;7.518;2024-02-26T06:48:56;3.50;99.90
45807;DHT22;31507;51.494;7.518;2024-02-26T06:51:21;3.50;99.90
45807;DHT22;31507;51.494;7.518;2024-02-26T06:53:47;3.50;99.90
45807;DHT22;31507;51.494;7.518;2024-02-26T06:56:13;3.50;99.90
45807;DHT22;31507;51.494;7.518;2024-02-26T06:58:38;3.50;99.90
45807;DHT22;31507;51.494;7.518;2024-02-26T07:01:04;3.50;99.90
45807;DHT22;31507;51.494;7.518;2024-02-26T07:03:29;3.60;99.90
45807;DHT22;31507;51.494;7.518;2024-02-26T07:05:55;3.60;99.90
45807;DHT22;31507;51.494;7.518;2024-02-26T07:08:21;3.60;99.90
45807;DHT22;31507;51.494;7.518;2024-02-26T07:10:46;3.60;99.90
45807;DHT22;31507;51.494;7.518;2024-02-26T07:13:12;3.60;99.90
45807;DHT22;31507;51.494;7.518;2024-02-26T07:15:37;3.60;99.90
45807;DHT22;31507;51.494;7.518;2024-02-26T07:18:03;3.60;99.90
45807;DHT22;31507;51.494;7.518;2024-02-26T07:20:29;3.60;99.90
45807;DHT22;31507;51.494;7.518;2024-02-26T07:22:55;3.60;99.90
45807;DHT22;31507;51.494;7.518;2024-02-26T07:25:21;3.60;99.90
45807;DHT22;31507;51.494;7.518;2024-02-26T07:27:46;3.60;99.90
45807;DHT22;31507;51.494;7.518;2024-02-26T07:30:12;3.70;99.90
45807;DHT22;31507;51.494;7.518;2024-02-26T07:32:37;3.70;99.90
45807;DHT22;31507;51.494;7.518;2024-02-26T07:35:03;3.70;99.90
45807;DHT22;31507;51.494;7.518;2024-02-26T07:37:29;3.70;99.90
45807;DHT22;31507;51.494;7.518;2024-02-26T07:39:54;3.70;99.90
45807;DHT22;31507;51.494;7.518;2024-02-26T07:42:20;3.70;99.90
45807;DHT22;31507;51.494;7.518;2024-02-26T07:44:45;3.70;99.90
45807;DHT22;31507;51.494;7.518;2024-02-26T07:47:11;3.80;99.90
45807;DHT22;31507;51.494;7.518;2024-02-26T07:49:36;3.80;99.90
45807;DHT22;31507;51.494;7.518;2024-02-26T07:52:02;3.80;99.90
45807;DHT22;31507;51.494;7.518;2024-02-26T07:54:28;3.80;99.90
45807;DHT22;31507;51.494;7.518;2024-02-26T07:56:53;3.80;99.90
45807;DHT22;31507;51.494;7.518;2024-02-26T07:59:18;3.90;99.90
45807;DHT22;31507;51.494;7.518;2024-02-26T08:01:48;3.90;99.90
45807;DHT22;31507;51.494;7.518;2024-02-26T08:04:14;3.90;99.90
45807;DHT22;31507;51.494;7.518;2024-02-26T08:06:39;3.90;99.90
45807;DHT22;31507;51.494;7.518;2024-02-26T08:09:05;3.90;99.90
45807;DHT22;31507;51.494;7.518;2024-02-26T08:11:31;4.00;99.90
45807;DHT22;31507;51.494;7.518;2024-02-26T08:13:56;4.00;99.90
45807;DHT22;31507;51.494;7.518;2024-02-26T08:16:22;4.00;99.90
45807;DHT22;31507;51.494;7.518;2024-02-26T08:18:47;4.00;99.90
45807;DHT22;31507;51.494;7.518;2024-02-26T08:21:13;4.00;99.90
45807;DHT22;31507;51.494;7.518;2024-02-26T08:23:38;4.00;99.90
45807;DHT22;31507;51.494;7.518;2024-02-26T08:26:04;4.10;99.90
45807;DHT22;31507;51.494;7.518;2024-02-26T08:28:32;4.00;99.90
45807;DHT22;31507;51.494;7.518;2024-02-26T08:30:58;4.10;99.90
45807;DHT22;31507;51.494;7.518;2024-02-26T08:33:23;4.10;99.90
45807;DHT22;31507;51.494;7.518;2024-02-26T08:35:49;4.10;99.90
45807;DHT22;31507;51.494;7.518;2024-02-26T08:38:14;4.20;99.90
45807;DHT22;31507;51.494;7.518;2024-02-26T08:40:40;4.20;99.90
45807;DHT22;31507;51.494;7.518;2024-02-26T08:43:05;4.20;99.90
45807;DHT22;31507;51.494;7.518;2024-02-26T08:45:31;4.20;99.90
45807;DHT22;31507;51.494;7.518;2024-02-26T08:47:56;4.20;99.90
45807;DHT22;31507;51.494;7.518;2024-02-26T08:50:23;4.20;99.90
45807;DHT22;31507;51.494;7.518;2024-02-26T08:52:49;4.30;99.90
45807;DHT22;31507;51.494;7.518;2024-02-26T08:55:16;4.20;99.90
45807;DHT22;31507;51.494;7.518;2024-02-26T08:57:44;4.30;99.90
45807;DHT22;31507;51.494;7.518;2024-02-26T09:00:09;4.30;99.90
45807;DHT22;31507;51.494;7.518;2024-02-26T09:02:36;4.30;99.90
45807;DHT22;31507;51.494;7.518;2024-02-26T09:05:04;4.30;99.90
45807;DHT22;31507;51.494;7.518;2024-02-26T09:07:31;4.40;99.90
45807;DHT22;31507;51.494;7.518;2024-02-26T09:09:56;4.40;99.90
45807;DHT22;31507;51.494;7.518;2024-02-26T09:12:22;4.40;99.90
45807;DHT22;31507;51.494;7.518;2024-02-26T09:14:47;4.50;99.90
45807;DHT22;31507;51.494;7.518;2024-02-26T09:17:13;4.50;99.90
45807;DHT22;31507;51.494;7.518;2024-02-26T09:19:38;4.50;99.90
45807;DHT22;31507;51.494;7.518;2024-02-26T09:22:04;4.50;99.90
45807;DHT22;31507;51.494;7.518;2024-02-26T09:24:29;4.60;99.90
45807;DHT22;31507;51.494;7.518;2024-02-26T09:26:55;4.60;99.90
45807;DHT22;31507;51.494;7.518;2024-02-26T09:29:20;4.60;99.90
45807;DHT22;31507;51.494;7.518;2024-02-26T09:31:46;4.70;99.90
45807;DHT22;31507;51.494;7.518;2024-02-26T09:34:14;4.70;99.90
45807;DHT22;31507;51.494;7.518;2024-02-26T09:36:40;4.70;99.90
45807;DHT22;31507;51.494;7.518;2024-02-26T09:39:05;4.70;99.90
45807;DHT22;31507;51.494;7.518;2024-02-26T09:41:36;4.80;99.90
45807;DHT22;31507;51.494;7.518;2024-02-26T09:44:02;4.80;99.90
45807;DHT22;31507;51.494;7.518;2024-02-26T09:46:28;4.80;99.90
45807;DHT22;31507;51.494;7.518;2024-02-26T09:48:53;4.80;99.90
45807;DHT22;31507;51.494;7.518;2024-02-26T09:51:19;4.80;99.90
45807;DHT22;31507;51.494;7.518;2024-02-26T09:53:48;4.90;99.90
45807;DHT22;31507;51.494;7.518;2024-02-26T09:56:16;4.90;99.90
45807;DHT22;31507;51.494;7.518;2024-02-26T09:58:42;4.90;99.90
45807;DHT22;31507;51.494;7.518;2024-02-26T10:01:10;4.90;99.90
45807;DHT22;31507;51.494;7.518;2024-02-26T10:03:40;5.00;99.90
45807;DHT22;31507;51.494;7.518;2024-02-26T10:06:07;5.00;99.90
45807;DHT22;31507;51.494;7.518;2024-02-26T10:08:33;5.10;99.90
45807;DHT22;31507;51.494;7.518;2024-02-26T10:11:00;5.10;99.90
45807;DHT22;31507;51.494;7.518;2024-02-26T10:13:26;5.20;99.90
45807;DHT22;31507;51.494;7.518;2024-02-26T10:15:52;5.20;99.90
45807;DHT22;31507;51.494;7.518;2024-02-26T10:18:17;5.20;99.90
45807;DHT22;31507;51.494;7.518;2024-02-26T10:20:54;5.30;99.90
45807;DHT22;31507;51.494;7.518;2024-02-26T10:23:25;5.30;99.90
45807;DHT22;31507;51.494;7.518;2024-02-26T10:25:54;5.40;99.90
45807;DHT22;31507;51.494;7.518;2024-02-26T10:28:20;5.50;99.90
45807;DHT22;31507;51.494;7.518;2024-02-26T10:30:45;5.50;99.90
45807;DHT22;31507;51.494;7.518;2024-02-26T10:33:12;5.60;99.90
45807;DHT22;31507;51.494;7.518;2024-02-26T10:35:38;5.60;99.90
45807;DHT22;31507;51.494;7.518;2024-02-26T10:38:09;5.70;99.90
45807;DHT22;31507;51.494;7.518;2024-02-26T10:40:34;5.70;99.90
45807;DHT22;31507;51.494;7.518;2024-02-26T10:43:00;5.70;99.90
45807;DHT22;31507;51.494;7.518;2024-02-26T10:45:26;5.80;99.90
45807;DHT22;31507;51.494;7.518;2024-02-26T10:47:51;5.90;99.90
45807;DHT22;31507;51.494;7.518;2024-02-26T10:50:17;5.90;99.90
45807;DHT22;31507;51.494;7.518;2024-02-26T10:52:43;6.00;99.90
45807;DHT22;31507;51.494;7.518;2024-02-26T10:55:10;5.90;99.90
45807;DHT22;31507;51.494;7.518;2024-02-26T10:57:39;6.00;99.90
45807;DHT22;31507;51.494;7.518;2024-02-26T11:00:05;6.10;99.90
45807;DHT22;31507;51.494;7.518;2024-02-26T11:02:34;6.10;99.90
45807;DHT22;31507;51.494;7.518;2024-02-26T11:05:04;6.20;99.90
45807;DHT22;31507;51.494;7.518;2024-02-26T11:07:30;6.30;99.90
45807;DHT22;31507;51.494;7.518;2024-02-26T11:09:58;6.40;99.90
45807;DHT22;31507;51.494;7.518;2024-02-26T11:12:24;6.50;99.90
45807;DHT22;31507;51.494;7.518;2024-02-26T11:14:50;6.60;99.90
45807;DHT22;31507;51.494;7.518;2024-02-26T11:17:22;6.70;99.90
45807;DHT22;31507;51.494;7.518;2024-02-26T11:19:49;6.70;99.90
45807;DHT22;31507;51.494;7.518;2024-02-26T11:22:15;6.70;99.90
45807;DHT22;31507;51.494;7.518;2024-02-26T11:24:40;6.70;99.90
45807;DHT22;31507;51.494;7.518;2024-02-26T11:27:09;6.80;99.90
45807;DHT22;31507;51.494;7.518;2024-02-26T11:29:38;6.80;99.90
45807;DHT22;31507;51.494;7.518;2024-02-26T11:32:05;6.80;99.90
45807;DHT22;31507;51.494;7.518;2024-02-26T11:34:31;6.80;99.90
45807;DHT22;31507;51.494;7.518;2024-02-26T11:36:56;6.80;99.90
45807;DHT22;31507;51.494;7.518;2024-02-26T11:39:22;6.90;99.90
45807;DHT22;31507;51.494;7.518;2024-02-26T11:41:48;6.80;99.90
45807;DHT22;31507;51.494;7.518;2024-02-26T11:44:15;6.80;99.90
45807;DHT22;31507;51.494;7.518;2024-02-26T11:46:53;6.80;99.90
45807;DHT22;31507;51.494;7.518;2024-02-26T11:51:57;6.80;99.90
45807;DHT22;31507;51.494;7.518;2024-02-26T11:59:55;6.80;99.90
45807;DHT22;31507;51.494;7.518;2024-02-26T12:03:03;6.80;99.90
45807;DHT22;31507;51.494;7.518;2024-02-26T12:05:11;6.80;99.90
45807;DHT22;31507;51.494;7.518;2024-02-26T12:07:48;6.90;99.90
45807;DHT22;31507;51.494;7.518;2024-02-26T12:10:24;6.90;99.90
45807;DHT22;31507;51.494;7.518;2024-02-26T12:13:06;7.00;99.90
45807;DHT22;31507;51.494;7.518;2024-02-26T12:15:33;7.10;99.90
45807;DHT22;31507;51.494;7.518;2024-02-26T12:18:02;7.20;99.90
45807;DHT22;31507;51.494;7.518;2024-02-26T12:20:28;7.20;99.90
45807;DHT22;31507;51.494;7.518;2024-02-26T12:22:54;7.20;99.90
45807;DHT22;31507;51.494;7.518;2024-02-26T12:25:22;7.20;99.90
45807;DHT22;31507;51.494;7.518;2024-02-26T12:27:48;7.20;99.90
45807;DHT22;31507;51.494;7.518;2024-02-26T12:30:13;7.20;99.90
45807;DHT22;31507;51.494;7.518;2024-02-26T12:32:39;7.20;99.90
45807;DHT22;31507;51.494;7.518;2024-02-26T12:35:05;7.20;99.90
45807;DHT22;31507;51.494;7.518;2024-02-26T12:37:30;7.10;99.90
45807;DHT22;31507;51.494;7.518;2024-02-26T12:39:57;7.10;99.90
45807;DHT22;31507;51.494;7.518;2024-02-26T12:42:22;7.10;99.90
45807;DHT22;31507;51.494;7.518;2024-02-26T12:44:49;7.00;99.90
45807;DHT22;31507;51.494;7.518;2024-02-26T12:47:15;7.10;99.90
45807;DHT22;31507;51.494;7.518;2024-02-26T12:49:42;7.10;99.90
45807;DHT22;31507;51.494;7.518;2024-02-26T12:52:08;7.10;99.90
45807;DHT22;31507;51.494;7.518;2024-02-26T12:54:33;7.10;99.90
45807;DHT22;31507;51.494;7.518;2024-02-26T12:57:06;7.10;99.90
45807;DHT22;31507;51.494;7.518;2024-02-26T12:59:33;7.00;99.90
45807;DHT22;31507;51.494;7.518;2024-02-26T13:01:59;7.00;99.90
45807;DHT22;31507;51.494;7.518;2024-02-26T13:04:26;7.00;99.90
45807;DHT22;31507;51.494;7.518;2024-02-26T13:06:53;7.00;99.90
45807;DHT22;31507;51.494;7.518;2024-02-26T13:09:18;6.90;99.90
45807;DHT22;31507;51.494;7.518;2024-02-26T13:11:44;6.80;99.90
45807;DHT22;31507;51.494;7.518;2024-02-26T13:14:22;6.80;99.90
45807;DHT22;31507;51.494;7.518;2024-02-26T13:16:57;6.70;99.90
45807;DHT22;31507;51.494;7.518;2024-02-26T13:19:25;6.70;99.90
45807;DHT22;31507;51.494;7.518;2024-02-26T13:21:51;6.70;99.90
45807;DHT22;31507;51.494;7.518;2024-02-26T13:24:17;6.70;99.90
45807;DHT22;31507;51.494;7.518;2024-02-26T13:26:45;6.70;99.90
45807;DHT22;31507;51.494;7.518;2024-02-26T13:29:17;6.70;99.90
45807;DHT22;31507;51.494;7.518;2024-02-26T13:31:43;6.70;99.90
45807;DHT22;31507;51.494;7.518;2024-02-26T13:34:08;6.80;99.90
45807;DHT22;31507;51.494;7.518;2024-02-26T13:36:34;6.80;99.90
45807;DHT22;31507;51.494;7.518;2024-02-26T13:38:59;6.90;99.90
45807;DHT22;31507;51.494;7.518;2024-02-26T13:41:26;7.00;99.90
45807;DHT22;31507;51.494;7.518;2024-02-26T13:43:52;7.00;99.90
45807;DHT22;31507;51.494;7.518;2024-02-26T13:46:18;7.00;99.90
45807;DHT22;31507;51.494;7.518;2024-02-26T13:48:44;7.10;99.90
45807;DHT22;31507;51.494;7.518;2024-02-26T13:51:09;7.10;99.90
45807;DHT22;31507;51.494;7.518;2024-02-26T13:53:35;7.10;99.90
45807;DHT22;31507;51.494;7.518;2024-02-26T13:56:01;7.10;99.90
45807;DHT22;31507;51.494;7.518;2024-02-26T13:58:29;7.10;99.90
45807;DHT22;31507;51.494;7.518;2024-02-26T14:00:55;7.10;99.90
45807;DHT22;31507;51.494;7.518;2024-02-26T14:03:20;7.20;99.90
45807;DHT22;31507;51.494;7.518;2024-02-26T14:05:46;7.20;99.90
45807;DHT22;31507;51.494;7.518;2024-02-26T14:08:12;7.20;99.90
45807;DHT22;31507;51.494;7.518;2024-02-26T14:10:38;7.10;99.90
45807;DHT22;31507;51.494;7.518;2024-02-26T14:13:03;7.10;99.90
45807;DHT22;31507;51.494;7.518;2024-02-26T14:15:29;7.10;99.90
45807;DHT22;31507;51.494;7.518;2024-02-26T14:17:54;7.10;99.90
45807;DHT22;31507;51.494;7.518;2024-02-26T14:20:21;7.10;99.90
45807;DHT22;31507;51.494;7.518;2024-02-26T14:22:47;7.10;99.90
45807;DHT22;31507;51.494;7.518;2024-02-26T14:25:13;7.20;99.90
45807;DHT22;31507;51.494;7.518;2024-02-26T14:27:39;7.30;99.90
45807;DHT22;31507;51.494;7.518;2024-02-26T14:30:04;7.30;99.90
45807;DHT22;31507;51.494;7.518;2024-02-26T14:32:30;7.40;99.90
45807;DHT22;31507;51.494;7.518;2024-02-26T14:35:00;7.40;99.90
45807;DHT22;31507;51.494;7.518;2024-02-26T14:37:25;7.50;99.90
45807;DHT22;31507;51.494;7.518;2024-02-26T14:39:51;7.60;99.90
45807;DHT22;31507;51.494;7.518;2024-02-26T14:42:18;7.60;99.90
45807;DHT22;31507;51.494;7.518;2024-02-26T14:44:43;7.70;99.90
45807;DHT22;31507;51.494;7.518;2024-02-26T14:47:09;7.70;99.90
45807;DHT22;31507;51.494;7.518;2024-02-26T14:49:35;7.80;99.90
45807;DHT22;31507;51.494;7.518;2024-02-26T14:52:00;7.80;99.90
45807;DHT22;31507;51.494;7.518;2024-02-26T14:54:28;7.90;99.90
45807;DHT22;31507;51.494;7.518;2024-02-26T14:56:58;7.90;99.90
45807;DHT22;31507;51.494;7.518;2024-02-26T14:59:23;7.90;96.20
45807;DHT22;31507;51.494;7.518;2024-02-26T15:01:49;8.10;98.10
45807;DHT22;31507;51.494;7.518;2024-02-26T15:04:14;8.30;94.20
45807;DHT22;31507;51.494;7.518;2024-02-26T15:06:40;8.50;86.20
45807;DHT22;31507;51.494;7.518;2024-02-26T15:09:06;8.40;74.30
45807;DHT22;31507;51.494;7.518;2024-02-26T15:11:32;8.50;94.10
45807;DHT22;31507;51.494;7.518;2024-02-26T15:13:57;8.30;65.20
45807;DHT22;31507;51.494;7.518;2024-02-26T15:16:23;8.30;85.70
45807;DHT22;31507;51.494;7.518;2024-02-26T15:18:48;8.30;86.80
45807;DHT22;31507;51.494;7.518;2024-02-26T15:21:14;8.20;85.20
45807;DHT22;31507;51.494;7.518;2024-02-26T15:23:43;8.20;84.80
45807;DHT22;31507;51.494;7.518;2024-02-26T15:26:12;8.10;68.50
45807;DHT22;31507;51.494;7.518;2024-02-26T15:28:39;8.10;79.70
45807;DHT22;31507;51.494;7.518;2024-02-26T15:31:04;8.00;88.70
45807;DHT22;31507;51.494;7.518;2024-02-26T15:33:30;7.90;72.10
45807;DHT22;31507;51.494;7.518;2024-02-26T15:35:56;7.80;90.60
45807;DHT22;31507;51.494;7.518;2024-02-26T15:38:21;7.70;90.10
45807;DHT22;31507;51.494;7.518;2024-02-26T15:40:47;7.60;86.90
45807;DHT22;31507;51.494;7.518;2024-02-26T15:43:13;7.50;85.30
45807;DHT22;31507;51.494;7.518;2024-02-26T15:45:38;7.40;92.20
45807;DHT22;31507;51.494;7.518;2024-02-26T15:48:04;7.30;88.90